sensor_id;sensor_type;location;lat;lon;timestamp;pressure;altitude;pressure_sealevel;temperature;humidity
56928;BME280;60850;52.502;13.426;2023-02-11T00:01:53;102489.84;;;3.83;100.00
56928;BME280;60850;52.502;13.426;2023-02-11T00:04:20;102489.00;;;3.84;100.00
56928;BME280;60850;52.502;13.426;2023-02-11T00:06:46;102496.09;;;3.87;100.00
56928;BME280;60850;52.502;13.426;2023-02-11T00:09:13;102487.50;;;3.94;100.00
56928;BME280;60850;52.502;13.426;2023-02-11T00:11:42;102493.75;;;3.96;100.00
56928;BME280;60850;52.502;13.426;2023-02-11T00:14:09;102508.09;;;4.06;100.00
56928;BME280;60850;52.502;13.426;2023-02-11T00:16:37;102512.63;;;4.10;100.00
56928;BME280;60850;52.502;13.426;2023-02-11T00:19:04;102526.56;;;4.06;100.00
56928;BME280;60850;52.502;13.426;2023-02-11T00:21:32;102520.38;;;4.05;100.00
56928;BME280;60850;52.502;13.426;2023-02-11T00:24:00;102534.47;;;4.06;100.00
56928;BME280;60850;52.502;13.426;2023-02-11T00:26:29;102524.84;;;4.08;100.00
56928;BME280;60850;52.502;13.426;2023-02-11T00:28:58;102506.56;;;4.14;100.00
56928;BME280;60850;52.502;13.426;2023-02-11T00:31:26;102493.34;;;4.14;100.00
56928;BME280;60850;52.502;13.426;2023-02-11T00:33:53;102484.59;;;4.15;100.00
56928;BME280;60850;52.502;13.426;2023-02-11T00:36:21;102491.69;;;4.16;100.00
56928;BME280;60850;52.502;13.426;2023-02-11T00:38:51;102478.41;;;4.14;100.00
56928;BME280;60850;52.502;13.426;2023-02-11T00:41:19;102484.00;;;4.25;100.00
56928;BME280;60850;52.502;13.426;2023-02-11T00:43:46;102481.59;;;4.34;100.00
56928;BME280;60850;52.502;13.426;2023-02-11T00:46:14;102481.84;;;4.44;100.00
56928;BME280;60850;52.502;13.426;2023-02-11T00:48:41;102478.47;;;4.49;100.00
56928;BME280;60850;52.502;13.426;2023-02-11T00:51:08;102491.00;;;4.58;100.00
56928;BME280;60850;52.502;13.426;2023-02-11T00:53:36;102499.06;;;4.62;100.00
56928;BME280;60850;52.502;13.426;2023-02-11T00:56:03;102493.19;;;4.73;100.00
56928;BME280;60850;52.502;13.426;2023-02-11T00:58:30;102495.06;;;4.78;100.00
56928;BME280;60850;52.502;13.426;2023-02-11T01:00:57;102496.03;;;4.80;100.00
56928;BME280;60850;52.502;13.426;2023-02-11T01:03:26;102490.84;;;4.85;100.00
56928;BME280;60850;52.502;13.426;2023-02-11T01:05:53;102483.06;;;4.91;100.00
56928;BME280;60850;52.502;13.426;2023-02-11T01:08:20;102468.09;;;4.91;100.00
56928;BME280;60850;52.502;13.426;2023-02-11T01:10:53;102457.53;;;4.91;100.00
56928;BME280;60850;52.502;13.426;2023-02-11T01:13:20;102459.31;;;4.92;100.00
56928;BME280;60850;52.502;13.426;2023-02-11T01:15:47;102448.81;;;4.95;100.00
56928;BME280;60850;52.502;13.426;2023-02-11T01:18:15;102436.53;;;4.97;100.00
56928;BME280;60850;52.502;13.426;2023-02-11T01:20:43;102420.78;;;5.02;100.00
56928;BME280;60850;52.502;13.426;2023-02-11T01:23:10;102415.50;;;5.02;100.00
56928;BME280;60850;52.502;13.426;2023-02-11T01:25:37;102412.84;;;5.01;100.00
56928;BME280;60850;52.502;13.426;2023-02-11T01:28:04;102403.22;;;5.04;100.00
56928;BME280;60850;52.502;13.426;2023-02-11T01:30:31;102412.91;;;5.04;100.00
56928;BME280;60850;52.502;13.426;2023-02-11T01:32:58;102417.41;;;5.08;100.00
56928;BME280;60850;52.502;13.426;2023-02-11T01:35:25;102407.75;;;5.10;100.00
56928;BME280;60850;52.502;13.426;2023-02-11T01:37:53;102413.94;;;5.10;100.00
56928;BME280;60850;52.502;13.426;2023-02-11T01:40:20;102409.53;;;5.11;100.00
56928;BME280;60850;52.502;13.426;2023-02-11T01:42:47;102396.28;;;5.09;100.00
56928;BME280;60850;52.502;13.426;2023-02-11T01:48:26;102399.69;;;5.05;100.00
56928;BME280;60850;52.502;13.426;2023-02-11T01:51:00;102389.31;;;5.14;100.00
56928;BME280;60850;52.502;13.426;2023-02-11T01:53:29;102399.97;;;5.16;100.00
56928;BME280;60850;52.502;13.426;2023-02-11T01:56:15;102401.84;;;5.21;100.00
56928;BME280;60850;52.502;13.426;2023-02-11T01:59:04;102403.63;;;5.22;100.00
56928;BME280;60850;52.502;13.426;2023-02-11T02:01:34;102393.19;;;5.29;100.00
56928;BME280;60850;52.502;13.426;2023-02-11T02:04:04;102387.97;;;5.32;100.00
56928;BME280;60850;52.502;13.426;2023-02-11T02:06:34;102392.34;;;5.31;100.00
56928;BME280;60850;52.502;13.426;2023-02-11T02:09:05;102384.56;;;5.37;100.00
56928;BME280;60850;52.502;13.426;2023-02-11T02:11:35;102371.19;;;5.31;100.00
56928;BME280;60850;52.502;13.426;2023-02-11T02:14:02;102385.34;;;5.33;100.00
56928;BME280;60850;52.502;13.426;2023-02-11T02:16:30;102389.72;;;5.31;100.00
56928;BME280;60850;52.502;13.426;2023-02-11T02:19:39;102375.56;;;5.29;100.00
56928;BME280;60850;52.502;13.426;2023-02-11T02:22:45;102374.84;;;5.36;100.00
56928;BME280;60850;52.502;13.426;2023-02-11T02:25:41;102380.91;;;5.32;100.00
56928;BME280;60850;52.502;13.426;2023-02-11T02:28:27;102373.00;;;5.34;100.00
56928;BME280;60850;52.502;13.426;2023-02-11T02:31:16;102362.47;;;5.35;100.00
56928;BME280;60850;52.502;13.426;2023-02-11T02:33:52;102369.66;;;5.42;100.00
56928;BME280;60850;52.502;13.426;2023-02-11T02:36:23;102363.47;;;5.42;100.00
56928;BME280;60850;52.502;13.426;2023-02-11T02:38:55;102354.13;;;5.58;100.00
56928;BME280;60850;52.502;13.426;2023-02-11T02:41:27;102351.50;;;5.59;100.00
56928;BME280;60850;52.502;13.426;2023-02-11T02:43:55;102355.00;;;5.58;100.00
56928;BME280;60850;52.502;13.426;2023-02-11T02:46:24;102346.19;;;5.58;100.00
56928;BME280;60850;52.502;13.426;2023-02-11T02:48:53;102345.31;;;5.59;100.00
56928;BME280;60850;52.502;13.426;2023-02-11T02:51:29;102348.03;;;5.63;100.00
56928;BME280;60850;52.502;13.426;2023-02-11T02:54:18;102340.09;;;5.63;100.00
56928;BME280;60850;52.502;13.426;2023-02-11T02:56:53;102342.81;;;5.65;100.00
56928;BME280;60850;52.502;13.426;2023-02-11T02:59:29;102336.53;;;5.61;100.00
56928;BME280;60850;52.502;13.426;2023-02-11T03:02:05;102331.22;;;5.60;100.00
56928;BME280;60850;52.502;13.426;2023-02-11T03:04:42;102333.88;;;5.60;100.00
56928;BME280;60850;52.502;13.426;2023-02-11T03:07:18;102332.06;;;5.57;100.00
56928;BME280;60850;52.502;13.426;2023-02-11T03:09:51;102327.66;;;5.58;100.00
56928;BME280;60850;52.502;13.426;2023-02-11T03:12:20;102324.13;;;5.57;100.00
56928;BME280;60850;52.502;13.426;2023-02-11T03:14:48;102317.09;;;5.58;100.00
56928;BME280;60850;52.502;13.426;2023-02-11T03:17:17;102329.44;;;5.59;100.00
56928;BME280;60850;52.502;13.426;2023-02-11T03:19:48;102325.97;;;5.63;100.00
56928;BME280;60850;52.502;13.426;2023-02-11T03:22:18;102327.75;;;5.64;100.00
56928;BME280;60850;52.502;13.426;2023-02-11T03:24:47;102315.47;;;5.66;100.00
56928;BME280;60850;52.502;13.426;2023-02-11T03:27:19;102317.28;;;5.70;100.00
56928;BME280;60850;52.502;13.426;2023-02-11T03:29:50;102316.53;;;5.75;100.00
56928;BME280;60850;52.502;13.426;2023-02-11T03:32:24;102321.78;;;5.72;100.00
56928;BME280;60850;52.502;13.426;2023-02-11T03:34:56;102320.88;;;5.72;100.00
56928;BME280;60850;52.502;13.426;2023-02-11T03:37:29;102323.47;;;5.70;100.00
56928;BME280;60850;52.502;13.426;2023-02-11T03:40:01;102328.81;;;5.72;100.00
56928;BME280;60850;52.502;13.426;2023-02-11T03:42:32;102326.19;;;5.72;100.00
56928;BME280;60850;52.502;13.426;2023-02-11T03:45:04;102315.50;;;5.69;100.00
56928;BME280;60850;52.502;13.426;2023-02-11T03:47:35;102325.31;;;5.73;100.00
56928;BME280;60850;52.502;13.426;2023-02-11T03:50:06;102320.13;;;5.79;100.00
56928;BME280;60850;52.502;13.426;2023-02-11T03:52:35;102321.09;;;5.84;100.00
56928;BME280;60850;52.502;13.426;2023-02-11T03:55:07;102325.59;;;5.88;100.00
56928;BME280;60850;52.502;13.426;2023-02-11T03:57:35;102315.13;;;5.93;100.00
56928;BME280;60850;52.502;13.426;2023-02-11T04:00:03;102317.66;;;5.88;100.00
56928;BME280;60850;52.502;13.426;2023-02-11T04:02:32;102327.28;;;5.85;100.00
56928;BME280;60850;52.502;13.426;2023-02-11T04:05:00;102309.56;;;5.79;100.00
56928;BME280;60850;52.502;13.426;2023-02-11T04:07:28;102314.97;;;5.87;100.00
56928;BME280;60850;52.502;13.426;2023-02-11T04:09:55;102315.88;;;5.89;100.00
56928;BME280;60850;52.502;13.426;2023-02-11T04:12:22;102311.38;;;5.85;100.00
56928;BME280;60850;52.502;13.426;2023-02-11T04:14:48;102312.31;;;5.85;100.00
56928;BME280;60850;52.502;13.426;2023-02-11T04:17:16;102315.88;;;5.87;100.00
56928;BME280;60850;52.502;13.426;2023-02-11T04:19:42;102322.13;;;5.91;100.00
56928;BME280;60850;52.502;13.426;2023-02-11T04:22:09;102321.25;;;5.92;100.00
56928;BME280;60850;52.502;13.426;2023-02-11T04:24:38;102324.84;;;5.94;100.00
56928;BME280;60850;52.502;13.426;2023-02-11T04:27:05;102326.59;;;5.93;100.00
56928;BME280;60850;52.502;13.426;2023-02-11T04:29:31;102315.97;;;5.92;100.00
56928;BME280;60850;52.502;13.426;2023-02-11T04:31:58;102310.75;;;5.96;100.00
56928;BME280;60850;52.502;13.426;2023-02-11T04:34:25;102313.41;;;5.96;100.00
56928;BME280;60850;52.502;13.426;2023-02-11T04:36:52;102308.84;;;5.89;100.00
56928;BME280;60850;52.502;13.426;2023-02-11T04:39:19;102316.84;;;5.91;100.00
56928;BME280;60850;52.502;13.426;2023-02-11T04:41:47;102304.53;;;5.93;100.00
56928;BME280;60850;52.502;13.426;2023-02-11T04:44:14;102301.06;;;5.97;100.00
56928;BME280;60850;52.502;13.426;2023-02-11T04:46:41;102294.88;;;5.96;100.00
56928;BME280;60850;52.502;13.426;2023-02-11T04:49:09;102300.25;;;5.99;100.00
56928;BME280;60850;52.502;13.426;2023-02-11T04:51:37;102297.59;;;5.99;100.00
56928;BME280;60850;52.502;13.426;2023-02-11T04:54:04;102296.53;;;5.91;100.00
56928;BME280;60850;52.502;13.426;2023-02-11T04:56:34;102293.06;;;5.92;100.00
56928;BME280;60850;52.502;13.426;2023-02-11T04:59:02;102285.13;;;5.92;100.00
56928;BME280;60850;52.502;13.426;2023-02-11T05:01:30;102271.91;;;5.94;100.00
56928;BME280;60850;52.502;13.426;2023-02-11T05:03:57;102284.28;;;5.96;100.00
56928;BME280;60850;52.502;13.426;2023-02-11T05:06:24;102269.31;;;5.98;100.00
56928;BME280;60850;52.502;13.426;2023-02-11T05:08:51;102283.31;;;5.91;100.00
56928;BME280;60850;52.502;13.426;2023-02-11T05:11:19;102266.50;;;5.89;100.00
56928;BME280;60850;52.502;13.426;2023-02-11T05:13:46;102263.84;;;5.89;100.00
56928;BME280;60850;52.502;13.426;2023-02-11T05:16:15;102258.66;;;5.92;100.00
56928;BME280;60850;52.502;13.426;2023-02-11T05:18:43;102254.13;;;5.90;100.00
56928;BME280;60850;52.502;13.426;2023-02-11T05:21:12;102251.63;;;5.94;100.00
56928;BME280;60850;52.502;13.426;2023-02-11T05:23:40;102242.78;;;5.94;100.00
56928;BME280;60850;52.502;13.426;2023-02-11T05:26:08;102240.16;;;5.94;100.00
56928;BME280;60850;52.502;13.426;2023-02-11T05:28:35;102241.06;;;5.96;100.00
56928;BME280;60850;52.502;13.426;2023-02-11T05:31:03;102230.47;;;5.97;100.00
56928;BME280;60850;52.502;13.426;2023-02-11T05:33:31;102227.03;;;6.03;100.00
56928;BME280;60850;52.502;13.426;2023-02-11T05:35:58;102221.78;;;6.04;100.00
56928;BME280;60850;52.502;13.426;2023-02-11T05:38:25;102232.38;;;6.06;100.00
56928;BME280;60850;52.502;13.426;2023-02-11T05:40:52;102227.03;;;6.01;100.00
56928;BME280;60850;52.502;13.426;2023-02-11T05:43:19;102220.94;;;6.07;100.00
56928;BME280;60850;52.502;13.426;2023-02-11T05:45:46;102224.41;;;6.04;100.00
56928;BME280;60850;52.502;13.426;2023-02-11T05:48:13;102221.66;;;5.98;100.00
56928;BME280;60850;52.502;13.426;2023-02-11T05:50:41;102211.06;;;5.97;100.00
56928;BME280;60850;52.502;13.426;2023-02-11T05:53:09;102219.91;;;5.99;100.00
56928;BME280;60850;52.502;13.426;2023-02-11T05:55:36;102219.09;;;6.01;100.00
56928;BME280;60850;52.502;13.426;2023-02-11T05:58:03;102226.25;;;6.09;100.00
56928;BME280;60850;52.502;13.426;2023-02-11T06:00:30;102226.28;;;6.10;100.00
56928;BME280;60850;52.502;13.426;2023-02-11T06:02:57;102232.53;;;6.14;100.00
56928;BME280;60850;52.502;13.426;2023-02-11T06:05:24;102218.44;;;6.16;100.00
56928;BME280;60850;52.502;13.426;2023-02-11T06:07:52;102232.59;;;6.20;100.00
56928;BME280;60850;52.502;13.426;2023-02-11T06:10:19;102231.69;;;6.18;100.00
56928;BME280;60850;52.502;13.426;2023-02-11T06:12:46;102235.28;;;6.21;100.00
56928;BME280;60850;52.502;13.426;2023-02-11T06:15:13;102238.84;;;6.25;100.00
56928;BME280;60850;52.502;13.426;2023-02-11T06:17:39;102231.78;;;6.24;100.00
56928;BME280;60850;52.502;13.426;2023-02-11T06:20:07;102243.19;;;6.20;100.00
56928;BME280;60850;52.502;13.426;2023-02-11T06:22:35;102237.94;;;6.21;100.00
56928;BME280;60850;52.502;13.426;2023-02-11T06:25:04;102238.84;;;6.25;100.00
56928;BME280;60850;52.502;13.426;2023-02-11T06:27:31;102242.41;;;6.27;100.00
56928;BME280;60850;52.502;13.426;2023-02-11T06:29:58;102236.22;;;6.25;100.00
56928;BME280;60850;52.502;13.426;2023-02-11T06:32:25;102228.22;;;6.22;100.00
56928;BME280;60850;52.502;13.426;2023-02-11T06:34:52;102221.19;;;6.24;100.00
56928;BME280;60850;52.502;13.426;2023-02-11T06:37:19;102230.09;;;6.29;100.00
56928;BME280;60850;52.502;13.426;2023-02-11T06:39:46;102228.38;;;6.31;100.00
56928;BME280;60850;52.502;13.426;2023-02-11T06:42:14;102221.31;;;6.33;100.00
56928;BME280;60850;52.502;13.426;2023-02-11T06:44:41;102217.78;;;6.34;100.00
56928;BME280;60850;52.502;13.426;2023-02-11T06:47:09;102220.50;;;6.36;100.00
56928;BME280;60850;52.502;13.426;2023-02-11T06:49:36;102217.88;;;6.37;100.00
56928;BME280;60850;52.502;13.426;2023-02-11T06:52:02;102216.97;;;6.35;100.00
56928;BME280;60850;52.502;13.426;2023-02-11T06:54:29;102215.13;;;6.31;100.00
56928;BME280;60850;52.502;13.426;2023-02-11T06:56:56;102234.50;;;6.28;100.00
56928;BME280;60850;52.502;13.426;2023-02-11T06:59:24;102223.06;;;6.32;100.00
56928;BME280;60850;52.502;13.426;2023-02-11T07:01:51;102223.06;;;6.29;100.00
56928;BME280;60850;52.502;13.426;2023-02-11T07:04:18;102230.13;;;6.32;100.00
56928;BME280;60850;52.502;13.426;2023-02-11T07:06:45;102224.91;;;6.37;100.00
56928;BME280;60850;52.502;13.426;2023-02-11T07:09:12;102217.88;;;6.37;100.00
56928;BME280;60850;52.502;13.426;2023-02-11T07:11:39;102211.72;;;6.41;100.00
56928;BME280;60850;52.502;13.426;2023-02-11T07:14:06;102208.19;;;6.41;100.00
56928;BME280;60850;52.502;13.426;2023-02-11T07:16:35;102212.66;;;6.43;100.00
56928;BME280;60850;52.502;13.426;2023-02-11T07:19:02;102217.97;;;6.46;100.00
56928;BME280;60850;52.502;13.426;2023-02-11T07:21:29;102206.59;;;6.52;100.00
56928;BME280;60850;52.502;13.426;2023-02-11T07:23:56;102196.00;;;6.52;100.00
56928;BME280;60850;52.502;13.426;2023-02-11T07:26:23;102200.44;;;6.54;100.00
56928;BME280;60850;52.502;13.426;2023-02-11T07:28:52;102197.78;;;6.54;100.00
56928;BME280;60850;52.502;13.426;2023-02-11T07:31:21;102196.97;;;6.58;100.00
56928;BME280;60850;52.502;13.426;2023-02-11T07:33:51;102185.53;;;6.63;100.00
56928;BME280;60850;52.502;13.426;2023-02-11T07:36:18;102193.41;;;6.56;100.00
56928;BME280;60850;52.502;13.426;2023-02-11T07:38:45;102200.50;;;6.60;100.00
56928;BME280;60850;52.502;13.426;2023-02-11T07:41:13;102189.97;;;6.64;100.00
56928;BME280;60850;52.502;13.426;2023-02-11T07:43:42;102193.59;;;6.70;100.00
56928;BME280;60850;52.502;13.426;2023-02-11T07:46:10;102190.97;;;6.75;100.00
56928;BME280;60850;52.502;13.426;2023-02-11T07:48:37;102190.09;;;6.76;100.00
56928;BME280;60850;52.502;13.426;2023-02-11T07:51:07;102194.56;;;6.78;100.00
56928;BME280;60850;52.502;13.426;2023-02-11T07:53:34;102193.72;;;6.82;100.00
56928;BME280;60850;52.502;13.426;2023-02-11T07:56:02;102190.28;;;6.89;100.00
56928;BME280;60850;52.502;13.426;2023-02-11T07:58:31;102193.81;;;6.90;100.00
56928;BME280;60850;52.502;13.426;2023-02-11T08:01:00;102197.31;;;6.86;100.00
56928;BME280;60850;52.502;13.426;2023-02-11T08:03:28;102195.56;;;6.88;100.00
56928;BME280;60850;52.502;13.426;2023-02-11T08:05:58;102187.53;;;6.83;100.00
56928;BME280;60850;52.502;13.426;2023-02-11T08:08:29;102199.00;;;6.81;100.00
56928;BME280;60850;52.502;13.426;2023-02-11T08:10:56;102195.47;;;6.79;100.00
56928;BME280;60850;52.502;13.426;2023-02-11T08:13:23;102214.00;;;6.79;100.00
56928;BME280;60850;52.502;13.426;2023-02-11T08:15:51;102219.31;;;6.79;100.00
56928;BME280;60850;52.502;13.426;2023-02-11T08:18:18;102222.94;;;6.85;100.00
56928;BME280;60850;52.502;13.426;2023-02-11T08:20:44;102232.75;;;6.94;100.00
56928;BME280;60850;52.502;13.426;2023-02-11T08:23:11;102236.41;;;7.04;100.00
56928;BME280;60850;52.502;13.426;2023-02-11T08:25:39;102240.88;;;7.06;100.00
56928;BME280;60850;52.502;13.426;2023-02-11T08:28:06;102241.84;;;7.13;100.00
56928;BME280;60850;52.502;13.426;2023-02-11T08:30:34;102244.50;;;7.18;100.00
56928;BME280;60850;52.502;13.426;2023-02-11T08:33:01;102234.78;;;7.16;100.00
56928;BME280;60850;52.502;13.426;2023-02-11T08:35:28;102236.56;;;7.18;100.00
56928;BME280;60850;52.502;13.426;2023-02-11T08:37:55;102239.28;;;7.22;100.00
56928;BME280;60850;52.502;13.426;2023-02-11T08:40:21;102242.72;;;7.13;100.00
56928;BME280;60850;52.502;13.426;2023-02-11T08:42:51;102240.06;;;7.15;100.00
56928;BME280;60850;52.502;13.426;2023-02-11T08:45:17;102248.91;;;7.15;100.00
56928;BME280;60850;52.502;13.426;2023-02-11T08:47:45;102247.97;;;7.10;100.00
56928;BME280;60850;52.502;13.426;2023-02-11T08:50:11;102247.16;;;7.14;100.00
56928;BME280;60850;52.502;13.426;2023-02-11T08:52:38;102237.41;;;7.13;100.00
56928;BME280;60850;52.502;13.426;2023-02-11T08:55:06;102218.84;;;7.13;100.00
56928;BME280;60850;52.502;13.426;2023-02-11T08:57:33;102215.34;;;7.18;100.00
56928;BME280;60850;52.502;13.426;2023-02-11T09:00:01;102207.44;;;7.22;100.00
56928;BME280;60850;52.502;13.426;2023-02-11T09:02:28;102208.31;;;7.20;100.00
56928;BME280;60850;52.502;13.426;2023-02-11T09:04:55;102220.72;;;7.22;100.00
56928;BME280;60850;52.502;13.426;2023-02-11T09:07:22;102202.16;;;7.22;100.00
56928;BME280;60850;52.502;13.426;2023-02-11T09:09:48;102207.50;;;7.28;100.00
56928;BME280;60850;52.502;13.426;2023-02-11T09:12:15;102206.56;;;7.25;100.00
56928;BME280;60850;52.502;13.426;2023-02-11T09:14:42;102218.94;;;7.24;100.00
56928;BME280;60850;52.502;13.426;2023-02-11T09:17:10;102232.19;;;7.21;100.00
56928;BME280;60850;52.502;13.426;2023-02-11T09:19:37;102240.16;;;7.24;100.00
56928;BME280;60850;52.502;13.426;2023-02-11T09:22:04;102233.16;;;7.26;100.00
56928;BME280;60850;52.502;13.426;2023-02-11T09:24:31;102235.78;;;7.26;100.00
56928;BME280;60850;52.502;13.426;2023-02-11T09:26:58;102242.00;;;7.27;100.00
56928;BME280;60850;52.502;13.426;2023-02-11T09:29:24;102249.97;;;7.31;100.00
56928;BME280;60850;52.502;13.426;2023-02-11T09:31:51;102250.84;;;7.30;100.00
56928;BME280;60850;52.502;13.426;2023-02-11T09:34:19;102235.84;;;7.32;100.00
56928;BME280;60850;52.502;13.426;2023-02-11T09:36:46;102257.03;;;7.29;100.00
56928;BME280;60850;52.502;13.426;2023-02-11T09:39:15;102252.69;;;7.34;100.00
56928;BME280;60850;52.502;13.426;2023-02-11T09:44:43;102250.91;;;7.33;100.00
56928;BME280;60850;52.502;13.426;2023-02-11T09:47:21;102263.38;;;7.42;100.00
56928;BME280;60850;52.502;13.426;2023-02-11T09:49:53;102265.22;;;7.51;100.00
56928;BME280;60850;52.502;13.426;2023-02-11T09:52:29;102265.25;;;7.52;100.00
56928;BME280;60850;52.502;13.426;2023-02-11T09:54:59;102271.50;;;7.60;100.00
56928;BME280;60850;52.502;13.426;2023-02-11T09:57:30;102269.78;;;7.62;100.00
56928;BME280;60850;52.502;13.426;2023-02-11T09:59:57;102278.66;;;7.64;100.00
56928;BME280;60850;52.502;13.426;2023-02-11T10:02:30;102283.94;;;7.63;100.00
56928;BME280;60850;52.502;13.426;2023-02-11T10:05:14;102281.31;;;7.66;100.00
56928;BME280;60850;52.502;13.426;2023-02-11T10:07:50;102272.47;;;7.65;100.00
56928;BME280;60850;52.502;13.426;2023-02-11T10:10:30;102275.09;;;7.64;100.00
56928;BME280;60850;52.502;13.426;2023-02-11T10:13:16;102286.59;;;7.61;100.00
56928;BME280;60850;52.502;13.426;2023-02-11T10:15:52;102281.31;;;7.66;100.00
56928;BME280;60850;52.502;13.426;2023-02-11T10:18:45;102281.38;;;7.72;100.00
56928;BME280;60850;52.502;13.426;2023-02-11T10:21:24;102276.06;;;7.72;100.00
56928;BME280;60850;52.502;13.426;2023-02-11T10:23:59;102279.53;;;7.66;100.00
56928;BME280;60850;52.502;13.426;2023-02-11T10:26:29;102287.50;;;7.63;100.00
56928;BME280;60850;52.502;13.426;2023-02-11T10:29:01;102288.38;;;7.64;100.00
56928;BME280;60850;52.502;13.426;2023-02-11T10:31:36;102291.03;;;7.67;100.00
56928;BME280;60850;52.502;13.426;2023-02-11T10:34:05;102296.34;;;7.64;100.00
56928;BME280;60850;52.502;13.426;2023-02-11T10:36:36;102291.09;;;7.68;100.00
56928;BME280;60850;52.502;13.426;2023-02-11T10:39:10;102279.53;;;7.66;100.00
56928;BME280;60850;52.502;13.426;2023-02-11T10:41:40;102283.16;;;7.71;100.00
56928;BME280;60850;52.502;13.426;2023-02-11T10:44:18;102273.41;;;7.69;100.00
56928;BME280;60850;52.502;13.426;2023-02-11T10:46:47;102273.47;;;7.77;100.00
56928;BME280;60850;52.502;13.426;2023-02-11T10:49:33;102262.03;;;7.85;100.00
56928;BME280;60850;52.502;13.426;2023-02-11T10:52:21;102260.28;;;7.86;100.00
56928;BME280;60850;52.502;13.426;2023-02-11T10:54:56;102267.34;;;7.87;100.00
56928;BME280;60850;52.502;13.426;2023-02-11T10:57:26;102276.19;;;7.84;100.00
56928;BME280;60850;52.502;13.426;2023-02-11T10:59:57;102270.00;;;7.88;100.00
56928;BME280;60850;52.502;13.426;2023-02-11T11:02:28;102263.81;;;7.88;100.00
56928;BME280;60850;52.502;13.426;2023-02-11T11:04:58;102258.44;;;7.82;100.00
56928;BME280;60850;52.502;13.426;2023-02-11T11:07:29;102252.25;;;7.80;100.00
56928;BME280;60850;52.502;13.426;2023-02-11T11:10:00;102257.56;;;7.81;100.00
56928;BME280;60850;52.502;13.426;2023-02-11T11:12:34;102254.06;;;7.87;100.00
56928;BME280;60850;52.502;13.426;2023-02-11T11:15:17;102251.44;;;7.88;100.00
56928;BME280;60850;52.502;13.426;2023-02-11T11:17:46;102252.38;;;7.95;100.00
56928;BME280;60850;52.502;13.426;2023-02-11T11:20:18;102253.25;;;7.91;100.00
56928;BME280;60850;52.502;13.426;2023-02-11T11:22:46;102246.16;;;7.91;100.00
56928;BME280;60850;52.502;13.426;2023-02-11T11:25:22;102232.00;;;7.91;100.00
56928;BME280;60850;52.502;13.426;2023-02-11T11:27:50;102232.00;;;7.92;100.00
56928;BME280;60850;52.502;13.426;2023-02-11T11:30:19;102232.00;;;7.94;100.00
56928;BME280;60850;52.502;13.426;2023-02-11T11:32:46;102230.25;;;7.96;100.00
56928;BME280;60850;52.502;13.426;2023-02-11T11:35:25;102255.09;;;8.01;100.00
56928;BME280;60850;52.502;13.426;2023-02-11T11:37:56;102268.41;;;8.04;100.00
56928;BME280;60850;52.502;13.426;2023-02-11T11:40:26;102254.25;;;8.04;100.00
56928;BME280;60850;52.502;13.426;2023-02-11T11:43:16;102253.31;;;8.03;100.00
56928;BME280;60850;52.502;13.426;2023-02-11T11:45:52;102254.25;;;8.04;100.00
56928;BME280;60850;52.502;13.426;2023-02-11T11:48:22;102248.94;;;8.04;100.00
56928;BME280;60850;52.502;13.426;2023-02-11T11:50:53;102250.69;;;8.05;100.00
56928;BME280;60850;52.502;13.426;2023-02-11T11:53:29;102256.91;;;8.05;100.00
56928;BME280;60850;52.502;13.426;2023-02-11T11:56:02;102248.94;;;8.07;100.00
56928;BME280;60850;52.502;13.426;2023-02-11T11:58:31;102248.06;;;8.09;100.00
56928;BME280;60850;52.502;13.426;2023-02-11T12:01:04;102249.84;;;8.10;100.00
56928;BME280;60850;52.502;13.426;2023-02-11T12:06:59;102252.53;;;8.13;100.00
56928;BME280;60850;52.502;13.426;2023-02-11T12:09:36;102249.00;;;8.11;100.00
56928;BME280;60850;52.502;13.426;2023-02-11T12:12:24;102233.06;;;8.11;100.00
56928;BME280;60850;52.502;13.426;2023-02-11T12:15:06;102240.19;;;8.23;100.00
56928;BME280;60850;52.502;13.426;2023-02-11T12:17:51;102240.25;;;8.29;100.00
56928;BME280;60850;52.502;13.426;2023-02-11T12:20:29;102242.94;;;8.32;100.00
56928;BME280;60850;52.502;13.426;2023-02-11T12:23:10;102233.25;;;8.37;100.00
56928;BME280;60850;52.502;13.426;2023-02-11T12:25:43;102230.63;;;8.39;100.00
56928;BME280;60850;52.502;13.426;2023-02-11T12:28:25;102230.53;;;8.34;100.00
56928;BME280;60850;52.502;13.426;2023-02-11T12:31:08;102239.47;;;8.41;100.00
56928;BME280;60850;52.502;13.426;2023-02-11T12:33:52;102238.59;;;8.43;100.00
56928;BME280;60850;52.502;13.426;2023-02-11T12:36:29;102235.94;;;8.40;100.00
56928;BME280;60850;52.502;13.426;2023-02-11T12:39:08;102245.69;;;8.44;100.00
56928;BME280;60850;52.502;13.426;2023-02-11T12:41:54;102238.66;;;8.52;100.00
56928;BME280;60850;52.502;13.426;2023-02-11T12:45:08;102224.50;;;8.55;100.00
56928;BME280;60850;52.502;13.426;2023-02-11T12:47:46;102248.47;;;8.61;100.00
56928;BME280;60850;52.502;13.426;2023-02-11T12:50:21;102251.09;;;8.58;100.00
56928;BME280;60850;52.502;13.426;2023-02-11T12:53:06;102249.31;;;8.56;100.00
56928;BME280;60850;52.502;13.426;2023-02-11T12:55:39;102245.72;;;8.49;100.00
56928;BME280;60850;52.502;13.426;2023-02-11T12:58:12;102239.53;;;8.50;100.00
56928;BME280;60850;52.502;13.426;2023-02-11T13:00:44;102251.09;;;8.53;100.00
56928;BME280;60850;52.502;13.426;2023-02-11T13:03:18;102256.38;;;8.52;100.00
56928;BME280;60850;52.502;13.426;2023-02-11T13:05:49;102256.34;;;8.47;100.00
56928;BME280;60850;52.502;13.426;2023-02-11T13:08:21;102255.50;;;8.53;100.00